Indiantown, Florida
Current Conditions -  °F | °C
As of 4:35 AM on Thursday 23 Oct 2014 (Local Time) from KSUA Reporting Station
Clear Clear  
Wind Chill: 75°   Ceiling: Unl
Heat Index: 75°   Visibility: 10mi
Dew Point: 64°   Wind: 10mph
Humidity: 69%   Direction: 40°NE
Pressure: 29.92"   Gusts: NA
Location:  27.03°N, 80.49°W
Report Text: KSUA 230835Z AUTO 04009KT 10SM CLR 24/18 A2992 RMK AO2
Loading
Personal Weather Stations






























Interactive Weather Map
Tropical Storm Tracking
New forecast layout! Learn more

10-Day Weather Forecast

Advertisements
Track Severe Weather on mobile